createdAt,value
2022-10-28T00:00:33.352Z,11.78
2022-10-28T00:03:19.370Z,11.70
2022-10-28T00:06:04.789Z,12.09
2022-10-28T00:08:49.609Z,11.86
2022-10-28T00:11:35.092Z,11.94
2022-10-28T00:14:19.102Z,11.86
2022-10-28T00:17:03.113Z,11.76
2022-10-28T00:19:48.575Z,11.93
2022-10-28T00:22:32.504Z,11.83
2022-10-28T00:25:16.607Z,11.79
2022-10-28T00:28:00.537Z,11.78
2022-10-28T00:30:44.465Z,11.99
2022-10-28T00:33:28.429Z,11.76
2022-10-28T00:36:16.257Z,11.79
2022-10-28T00:39:00.751Z,11.91
2022-10-28T00:41:47.299Z,11.83
2022-10-28T00:44:56.554Z,11.94
2022-10-28T00:47:52.439Z,12.08
2022-10-28T00:50:47.841Z,12.03
2022-10-28T00:53:33.571Z,12.08
2022-10-28T00:56:18.786Z,11.86
2022-10-28T00:59:05.450Z,12.05
2022-10-28T01:01:49.411Z,12.11
2022-10-28T01:04:33.346Z,12.06
2022-10-28T01:07:18.354Z,12.17
2022-10-28T01:10:03.516Z,12.16
2022-10-28T01:12:57.222Z,11.99
2022-10-28T01:15:49.917Z,12.13
2022-10-28T01:18:47.052Z,12.26
2022-10-28T01:22:04.180Z,12.26
2022-10-28T01:25:30.831Z,12.25
2022-10-28T01:28:35.866Z,12.32
2022-10-28T01:31:32.015Z,12.08
2022-10-28T01:34:28.269Z,12.29
2022-10-28T01:37:16.737Z,12.32
2022-10-28T01:40:09.527Z,12.05
2022-10-28T01:43:00.354Z,11.98
2022-10-28T01:45:51.589Z,11.95
2022-10-28T01:48:45.467Z,12.14
2022-10-28T01:51:35.122Z,12.41
2022-10-28T01:54:23.552Z,12.26
2022-10-28T01:57:07.461Z,12.26
2022-10-28T01:59:52.234Z,12.40
2022-10-28T02:02:38.472Z,12.51
2022-10-28T02:05:45.370Z,12.49
2022-10-28T02:08:54.018Z,12.53
2022-10-28T02:11:55.088Z,12.50
2022-10-28T02:15:15.743Z,12.27
2022-10-28T02:18:14.870Z,12.54
2022-10-28T02:21:04.203Z,12.52
2022-10-28T02:23:53.847Z,12.15
2022-10-28T02:26:44.168Z,12.34
2022-10-28T02:29:33.098Z,12.60
2022-10-28T02:32:23.030Z,12.70
2022-10-28T02:35:13.559Z,12.43
2022-10-28T02:38:01.712Z,12.80
2022-10-28T02:43:43.999Z,12.61
2022-10-28T02:46:30.621Z,12.50
2022-10-28T02:49:15.965Z,12.34
2022-10-28T02:52:01.661Z,12.25
2022-10-28T02:54:52.756Z,11.49
2022-10-28T02:57:39.217Z,11.74
2022-10-28T03:00:25.033Z,11.63
2022-10-28T03:03:08.797Z,11.72
2022-10-28T03:05:52.702Z,11.59
2022-10-28T03:08:36.414Z,11.58
2022-10-28T03:11:21.614Z,11.49
2022-10-28T03:14:05.391Z,11.45
2022-10-28T03:16:49.142Z,11.37
2022-10-28T03:19:32.908Z,11.15
2022-10-28T03:22:16.963Z,11.27
2022-10-28T03:25:00.637Z,11.24
2022-10-28T03:27:45.750Z,11.22
2022-10-28T03:30:29.569Z,11.09
2022-10-28T03:33:13.311Z,11.01
2022-10-28T03:35:57.118Z,11.02
2022-10-28T03:38:40.809Z,11.01
2022-10-28T03:41:24.591Z,10.87
2022-10-28T03:44:09.706Z,10.85
2022-10-28T03:46:53.440Z,10.77
2022-10-28T03:49:37.192Z,10.45
2022-10-28T03:52:20.917Z,10.68
2022-10-28T03:55:04.949Z,10.76
2022-10-28T03:57:48.730Z,10.45
2022-10-28T04:00:33.975Z,10.71
2022-10-28T04:03:18.186Z,10.63
2022-10-28T04:06:01.845Z,10.69
2022-10-28T04:08:45.535Z,10.64
2022-10-28T04:11:29.282Z,10.51
2022-10-28T04:14:12.957Z,10.54
2022-10-28T04:16:58.047Z,10.40
2022-10-28T04:19:41.770Z,10.39
2022-10-28T04:22:25.524Z,10.43
2022-10-28T04:25:09.436Z,10.43
2022-10-28T04:27:53.497Z,10.47
2022-10-28T04:30:37.482Z,10.37
2022-10-28T04:33:22.632Z,10.19
2022-10-28T04:36:06.628Z,10.33
2022-10-28T04:38:51.997Z,10.32
2022-10-28T04:41:36.008Z,10.44
2022-10-28T04:44:19.945Z,10.28
2022-10-28T04:47:03.679Z,10.06
2022-10-28T04:49:48.911Z,9.56
2022-10-28T04:52:32.676Z,10.29
2022-10-28T04:55:17.744Z,10.37
2022-10-28T04:58:02.317Z,10.51
2022-10-28T05:00:46.027Z,10.70
2022-10-28T05:03:29.778Z,10.68
2022-10-28T05:06:14.873Z,10.84
2022-10-28T05:08:58.645Z,10.95
2022-10-28T05:11:42.556Z,11.01
2022-10-28T05:14:26.340Z,11.08
2022-10-28T05:17:11.527Z,11.05
2022-10-28T05:19:55.315Z,10.48
2022-10-28T05:22:46.179Z,10.63
2022-10-28T05:25:29.855Z,10.71
2022-10-28T05:28:13.698Z,10.77
2022-10-28T05:30:57.464Z,10.87
2022-10-28T05:33:41.244Z,10.64
2022-10-28T05:36:25.019Z,10.79
2022-10-28T05:39:10.234Z,11.11
2022-10-28T05:41:53.993Z,11.24
2022-10-28T05:44:37.688Z,11.08
2022-10-28T05:47:21.543Z,11.28
2022-10-28T05:50:05.683Z,11.65
2022-10-28T05:52:50.069Z,12.07
2022-10-28T05:55:35.425Z,12.11
2022-10-28T05:58:19.151Z,12.42
2022-10-28T06:01:02.832Z,12.14
2022-10-28T06:03:46.648Z,11.95
2022-10-28T06:06:30.796Z,12.35
2022-10-28T06:09:14.486Z,12.67
2022-10-28T06:11:58.236Z,12.41
2022-10-28T06:14:41.918Z,12.74
2022-10-28T06:17:25.835Z,12.74
2022-10-28T06:20:10.845Z,12.72
2022-10-28T06:22:56.378Z,12.78
2022-10-28T06:25:40.258Z,12.93
2022-10-28T06:28:25.709Z,13.11
2022-10-28T06:31:09.458Z,13.28
2022-10-28T06:33:53.221Z,13.50
2022-10-28T06:36:37.001Z,13.43
2022-10-28T06:39:20.796Z,13.83
2022-10-28T06:42:04.670Z,13.93
2022-10-28T06:44:50.706Z,13.87
2022-10-28T06:47:40.550Z,14.09
2022-10-28T06:50:25.587Z,14.13
2022-10-28T06:53:10.322Z,14.33
2022-10-28T06:55:55.099Z,14.42
2022-10-28T06:58:38.823Z,14.18
2022-10-28T07:01:24.116Z,14.11
2022-10-28T07:04:08.083Z,14.15
2022-10-28T07:06:56.252Z,14.44
2022-10-28T07:09:39.990Z,14.74
2022-10-28T07:12:23.729Z,14.94
2022-10-28T07:15:08.700Z,14.99
2022-10-28T07:17:58.312Z,15.06
2022-10-28T07:20:42.087Z,15.52
2022-10-28T07:23:25.878Z,15.01
2022-10-28T07:26:09.560Z,15.16
2022-10-28T07:28:53.339Z,15.21
2022-10-28T07:31:37.093Z,15.43
2022-10-28T07:34:26.851Z,15.59
2022-10-28T07:37:13.351Z,15.68
2022-10-28T07:39:57.131Z,15.32
2022-10-28T07:42:40.920Z,15.14
2022-10-28T07:45:24.628Z,15.36
2022-10-28T07:48:08.870Z,15.53
2022-10-28T07:50:53.996Z,15.69
2022-10-28T07:53:37.753Z,15.49
2022-10-28T07:56:21.519Z,15.63
2022-10-28T07:59:05.278Z,15.59
2022-10-28T08:01:49.033Z,15.52
2022-10-28T08:04:33.601Z,15.13
2022-10-28T08:07:19.678Z,15.29
2022-10-28T08:10:03.470Z,14.69
2022-10-28T08:12:47.650Z,14.73
2022-10-28T08:15:31.620Z,14.41
2022-10-28T08:18:15.611Z,14.73
2022-10-28T08:23:47.148Z,14.48
2022-10-28T08:26:31.247Z,14.78
2022-10-28T08:29:15.441Z,15.17
2022-10-28T08:31:59.282Z,15.07
2022-10-28T08:34:43.823Z,15.19
2022-10-28T08:37:28.063Z,15.16
2022-10-28T08:40:14.705Z,15.32
2022-10-28T08:43:04.628Z,15.60
2022-10-28T08:45:57.774Z,15.94
2022-10-28T08:48:43.054Z,16.14
2022-10-28T08:51:38.467Z,16.23
2022-10-28T08:54:27.325Z,16.31
2022-10-28T08:57:18.426Z,16.06
2022-10-28T09:00:04.087Z,16.24
2022-10-28T09:03:10.577Z,16.55
2022-10-28T09:06:02.376Z,16.75
2022-10-28T09:08:48.178Z,16.81
2022-10-28T09:11:52.379Z,16.89
2022-10-28T09:15:10.889Z,16.91
2022-10-28T09:17:57.114Z,17.14
2022-10-28T09:20:51.238Z,17.25
2022-10-28T09:23:38.993Z,17.45
2022-10-28T09:26:30.562Z,17.79
2022-10-28T09:29:31.223Z,17.86
2022-10-28T09:32:27.109Z,18.08
2022-10-28T09:35:15.168Z,17.96
2022-10-28T09:38:07.809Z,18.04
2022-10-28T09:40:57.188Z,18.16
2022-10-28T09:43:47.715Z,18.87
2022-10-28T09:46:37.042Z,18.95
2022-10-28T09:49:26.823Z,19.07
2022-10-28T09:52:16.110Z,19.22
2022-10-28T09:55:07.718Z,18.87
2022-10-28T09:57:52.149Z,19.07
2022-10-28T10:00:36.234Z,19.14
2022-10-28T10:03:20.024Z,19.66
2022-10-28T10:06:13.623Z,19.96
2022-10-28T10:08:58.181Z,19.95
2022-10-28T10:11:45.223Z,20.42
2022-10-28T10:14:32.562Z,21.20
2022-10-28T10:17:19.435Z,21.41
2022-10-28T10:20:08.063Z,20.39
2022-10-28T10:22:53.495Z,20.45
2022-10-28T10:25:37.676Z,20.70
2022-10-28T10:28:23.187Z,19.88
2022-10-28T10:31:09.411Z,20.50
2022-10-28T10:33:55.561Z,20.71
2022-10-28T10:36:39.266Z,20.75
2022-10-28T10:39:28.092Z,20.63
2022-10-28T10:42:17.856Z,20.32
2022-10-28T10:45:03.767Z,20.30
2022-10-28T10:47:47.947Z,20.74
2022-10-28T10:50:33.156Z,20.77
2022-10-28T10:53:23.858Z,20.99
2022-10-28T10:56:13.220Z,20.51
2022-10-28T10:59:02.837Z,20.80
2022-10-28T11:01:46.810Z,20.48
2022-10-28T11:04:30.993Z,21.04
2022-10-28T11:07:16.914Z,20.82
2022-10-28T11:10:02.049Z,20.53
2022-10-28T11:12:53.800Z,20.83
2022-10-28T11:15:38.060Z,20.49
2022-10-28T11:18:22.698Z,20.55
2022-10-28T11:21:12.320Z,20.27
2022-10-28T11:24:13.521Z,20.53
2022-10-28T11:27:06.667Z,20.79
2022-10-28T11:29:52.165Z,20.56
2022-10-28T11:32:56.189Z,20.73
2022-10-28T11:36:03.332Z,20.74
2022-10-28T11:39:07.724Z,20.37
2022-10-28T11:42:16.467Z,20.10
2022-10-28T11:45:07.247Z,19.72
2022-10-28T11:48:17.308Z,19.76
2022-10-28T11:51:12.993Z,19.80
2022-10-28T11:54:18.088Z,20.29
2022-10-28T11:57:07.065Z,20.71
2022-10-28T12:00:04.897Z,20.64
2022-10-28T12:03:02.391Z,20.64
2022-10-28T12:05:51.386Z,21.32
2022-10-28T12:08:48.332Z,20.95
2022-10-28T12:11:44.026Z,20.07
2022-10-28T12:14:33.823Z,20.51
2022-10-28T12:17:25.191Z,20.57
2022-10-28T12:20:17.056Z,20.68
2022-10-28T12:23:04.304Z,19.81
2022-10-28T12:25:52.803Z,19.64
2022-10-28T12:28:43.782Z,18.93
2022-10-28T12:31:31.257Z,18.41
2022-10-28T12:34:21.677Z,18.91
2022-10-28T12:37:09.999Z,18.19
2022-10-28T12:40:01.674Z,18.32
2022-10-28T12:42:51.814Z,18.28
2022-10-28T12:45:36.148Z,18.62
2022-10-28T12:48:25.436Z,18.49
2022-10-28T12:51:16.098Z,18.51
2022-10-28T12:54:03.404Z,19.23
2022-10-28T12:56:52.883Z,18.41
2022-10-28T12:59:40.239Z,18.58
2022-10-28T13:02:30.173Z,18.25
2022-10-28T13:05:22.661Z,18.13
2022-10-28T13:08:40.619Z,18.32
2022-10-28T13:11:59.708Z,18.01
2022-10-28T13:15:16.295Z,17.98
2022-10-28T13:18:39.584Z,17.99
2022-10-28T13:21:33.452Z,17.91
2022-10-28T13:24:23.847Z,18.31
2022-10-28T13:27:13.510Z,18.72
2022-10-28T13:30:02.948Z,18.26
2022-10-28T13:32:53.892Z,18.08
2022-10-28T13:35:38.437Z,18.14
2022-10-28T13:38:25.710Z,17.83
2022-10-28T13:41:28.248Z,18.08
2022-10-28T13:44:28.346Z,18.20
2022-10-28T13:47:28.899Z,18.16
2022-10-28T13:50:37.302Z,18.16
2022-10-28T13:53:53.143Z,18.30
2022-10-28T13:56:49.085Z,18.13
2022-10-28T13:59:48.238Z,18.12
2022-10-28T14:02:37.711Z,17.42
2022-10-28T14:05:26.032Z,17.40
2022-10-28T14:08:21.559Z,17.45
2022-10-28T14:11:08.852Z,17.48
2022-10-28T14:13:57.837Z,17.69
2022-10-28T14:16:45.624Z,17.47
2022-10-28T14:19:29.338Z,17.18
2022-10-28T14:22:13.625Z,17.00
2022-10-28T14:24:57.605Z,17.25
2022-10-28T14:27:42.500Z,17.30
2022-10-28T14:30:27.651Z,17.27
2022-10-28T14:33:22.735Z,17.29
2022-10-28T14:36:27.396Z,17.18
2022-10-28T14:39:33.908Z,16.94
2022-10-28T14:42:33.107Z,17.15
2022-10-28T14:45:26.755Z,16.54
2022-10-28T14:48:35.545Z,16.95
2022-10-28T14:51:24.676Z,16.84
2022-10-28T14:54:14.553Z,16.65
2022-10-28T14:56:58.488Z,16.56
2022-10-28T14:59:45.377Z,16.46
2022-10-28T15:02:31.062Z,16.39
2022-10-28T15:05:20.513Z,16.12
2022-10-28T15:08:04.991Z,16.16
2022-10-28T15:10:50.525Z,16.15
2022-10-28T15:13:34.221Z,15.59
2022-10-28T15:16:23.388Z,15.68
2022-10-28T15:19:07.680Z,15.84
2022-10-28T15:22:07.021Z,15.78
2022-10-28T15:24:59.016Z,15.69
2022-10-28T15:27:44.606Z,15.52
2022-10-28T15:30:28.756Z,15.32
2022-10-28T15:33:20.855Z,15.23
2022-10-28T15:36:18.313Z,15.27
2022-10-28T15:39:17.372Z,15.14
2022-10-28T15:42:02.619Z,14.72
2022-10-28T15:44:46.403Z,14.70
2022-10-28T15:47:33.257Z,14.34
2022-10-28T15:50:28.095Z,14.46
2022-10-28T15:53:34.740Z,14.30
2022-10-28T15:56:24.981Z,14.07
2022-10-28T15:59:18.663Z,14.13
2022-10-28T16:02:02.449Z,14.05
2022-10-28T16:04:46.354Z,14.02
2022-10-28T16:07:30.160Z,13.99
2022-10-28T16:10:16.170Z,14.14
2022-10-28T16:13:01.780Z,13.92
2022-10-28T16:15:49.829Z,14.02
2022-10-28T16:18:40.370Z,13.89
2022-10-28T16:21:27.394Z,13.84
2022-10-28T16:24:13.398Z,13.86
2022-10-28T16:27:14.830Z,13.89
2022-10-28T16:30:00.405Z,13.56
2022-10-28T16:32:47.128Z,13.72
2022-10-28T16:35:30.952Z,13.38
2022-10-28T16:38:14.799Z,13.38
2022-10-28T16:41:00.056Z,13.21
2022-10-28T16:43:43.804Z,13.15
2022-10-28T16:46:28.984Z,12.76
2022-10-28T16:49:14.202Z,12.73
2022-10-28T16:51:57.892Z,12.65
2022-10-28T16:54:41.784Z,12.68
2022-10-28T16:57:26.115Z,12.83
2022-10-28T17:00:11.404Z,12.88
2022-10-28T17:02:56.577Z,12.96
2022-10-28T17:05:40.331Z,13.07
2022-10-28T17:08:48.884Z,12.87
2022-10-28T17:11:27.818Z,12.95
2022-10-28T17:14:11.580Z,13.08
2022-10-28T17:16:55.368Z,12.97
2022-10-28T17:19:41.107Z,13.16
2022-10-28T17:22:24.992Z,12.86
2022-10-28T17:25:09.627Z,12.90
2022-10-28T17:27:54.053Z,13.03
2022-10-28T17:30:38.276Z,12.95
2022-10-28T17:33:21.974Z,13.02
2022-10-28T17:36:08.779Z,13.18
2022-10-28T17:38:52.480Z,13.16
2022-10-28T17:41:36.411Z,13.18
2022-10-28T17:44:20.152Z,12.98
2022-10-28T17:47:04.091Z,12.85
2022-10-28T17:49:47.813Z,12.81
2022-10-28T17:52:35.863Z,12.88
2022-10-28T17:55:22.312Z,12.74
2022-10-28T17:58:06.104Z,12.76
2022-10-28T18:00:49.914Z,12.53
2022-10-28T18:03:38.377Z,12.67
2022-10-28T18:06:22.667Z,12.84
2022-10-28T18:09:12.197Z,12.99
2022-10-28T18:11:55.955Z,13.03
2022-10-28T18:14:40.080Z,13.11
2022-10-28T18:17:24.013Z,12.95
2022-10-28T18:20:09.257Z,12.87
2022-10-28T18:22:53.232Z,13.05
2022-10-28T18:25:38.749Z,12.93
2022-10-28T18:28:23.584Z,12.90
2022-10-28T18:31:09.053Z,12.68
2022-10-28T18:33:53.336Z,12.35
2022-10-28T18:36:37.518Z,12.49
2022-10-28T18:39:21.321Z,12.69
2022-10-28T18:42:07.439Z,12.70
2022-10-28T18:44:58.600Z,12.47
2022-10-28T18:47:44.682Z,11.88
2022-10-28T18:50:28.496Z,12.55
2022-10-28T18:53:12.436Z,12.27
2022-10-28T18:56:01.557Z,12.44
2022-10-28T18:58:48.587Z,12.51
2022-10-28T19:01:33.540Z,12.17
2022-10-28T19:04:17.547Z,12.19
2022-10-28T19:07:01.489Z,11.91
2022-10-28T19:09:45.380Z,12.20
2022-10-28T19:12:29.368Z,12.10
2022-10-28T19:15:14.858Z,11.91
2022-10-28T19:17:58.818Z,12.14
2022-10-28T19:20:42.745Z,11.85
2022-10-28T19:23:26.619Z,11.89
2022-10-28T19:26:11.351Z,11.88
2022-10-28T19:28:55.855Z,11.76
2022-10-28T19:31:42.151Z,11.43
2022-10-28T19:34:27.473Z,11.64
2022-10-28T19:37:11.320Z,11.61
2022-10-28T19:39:56.574Z,11.88
2022-10-28T19:42:40.662Z,11.82
2022-10-28T19:45:24.966Z,12.11
2022-10-28T19:48:10.103Z,12.24
2022-10-28T19:50:53.837Z,12.24
2022-10-28T19:53:37.627Z,12.32
2022-10-28T19:56:23.125Z,12.34
2022-10-28T19:59:08.105Z,12.30
2022-10-28T20:01:52.012Z,12.19
2022-10-28T20:04:37.213Z,12.11
2022-10-28T20:07:23.447Z,12.07
2022-10-28T20:10:08.227Z,11.78
2022-10-28T20:12:52.044Z,11.82
2022-10-28T20:15:35.929Z,11.91
2022-10-28T20:18:19.773Z,11.84
2022-10-28T20:21:06.303Z,11.73
2022-10-28T20:23:53.923Z,11.78
2022-10-28T20:26:39.884Z,11.80
2022-10-28T20:29:23.555Z,11.77
2022-10-28T20:32:07.382Z,11.84
2022-10-28T20:34:51.082Z,11.80
2022-10-28T20:37:36.312Z,11.78
2022-10-28T20:40:20.033Z,11.77
2022-10-28T20:43:04.801Z,11.52
2022-10-28T20:45:56.095Z,11.73
2022-10-28T20:48:39.857Z,11.81
2022-10-28T20:51:24.416Z,11.63
2022-10-28T20:54:08.242Z,11.37
2022-10-28T20:56:51.968Z,11.69
2022-10-28T20:59:37.098Z,11.84
2022-10-28T21:02:20.923Z,11.70
2022-10-28T21:05:05.360Z,11.55
2022-10-28T21:07:49.113Z,11.81
2022-10-28T21:10:32.873Z,11.56
2022-10-28T21:13:16.888Z,11.68
2022-10-28T21:16:05.771Z,11.48
2022-10-28T21:18:50.042Z,11.71
2022-10-28T21:21:33.928Z,11.61
2022-10-28T21:24:17.867Z,11.35
2022-10-28T21:27:01.853Z,11.70
2022-10-28T21:29:45.920Z,11.42
2022-10-28T21:32:31.290Z,11.38
2022-10-28T21:35:15.187Z,11.53
2022-10-28T21:37:59.161Z,11.59
2022-10-28T21:40:42.960Z,11.63
2022-10-28T21:43:28.577Z,11.65
2022-10-28T21:46:12.366Z,11.39
2022-10-28T21:48:57.606Z,11.55
2022-10-28T21:51:42.326Z,11.64
2022-10-28T21:54:26.081Z,11.77
2022-10-28T21:57:10.056Z,11.68
2022-10-28T21:59:53.772Z,11.66
2022-10-28T22:02:37.489Z,11.69
2022-10-28T22:05:22.660Z,11.64
2022-10-28T22:08:06.719Z,11.61
2022-10-28T22:10:50.449Z,11.66
2022-10-28T22:13:34.375Z,11.54
2022-10-28T22:16:19.311Z,11.60
2022-10-28T22:19:05.487Z,11.48
2022-10-28T22:21:50.593Z,11.20
2022-10-28T22:24:34.391Z,11.45
2022-10-28T22:27:18.142Z,11.39
2022-10-28T22:30:01.906Z,11.44
2022-10-28T22:32:47.109Z,11.18
2022-10-28T22:35:30.819Z,11.27
2022-10-28T22:38:15.928Z,11.35
2022-10-28T22:41:03.491Z,11.24
2022-10-28T22:43:50.123Z,11.34
2022-10-28T22:46:36.631Z,11.28
2022-10-28T22:49:22.457Z,11.28
2022-10-28T22:52:06.341Z,11.26
2022-10-28T22:54:51.412Z,11.42
2022-10-28T22:57:35.064Z,11.44
2022-10-28T23:03:08.085Z,10.94
2022-10-28T23:05:51.860Z,10.86
2022-10-28T23:08:36.041Z,11.04
2022-10-28T23:11:21.942Z,11.17
2022-10-28T23:14:05.733Z,11.23
2022-10-28T23:16:49.829Z,11.12
2022-10-28T23:19:33.674Z,10.79
2022-10-28T23:22:17.444Z,10.98
2022-10-28T23:25:01.202Z,11.17
2022-10-28T23:27:46.269Z,11.32
2022-10-28T23:30:29.939Z,11.19
2022-10-28T23:33:13.773Z,11.15
2022-10-28T23:35:57.950Z,11.14
2022-10-28T23:38:42.090Z,10.96
2022-10-28T23:41:25.963Z,11.20
2022-10-28T23:44:11.142Z,10.50
2022-10-28T23:46:54.929Z,11.18
2022-10-28T23:49:38.791Z,11.07
2022-10-28T23:52:22.520Z,11.05
2022-10-28T23:55:07.192Z,10.68
2022-10-28T23:57:50.966Z,10.90
